createdAt,value
2023-05-15T00:00:51.809Z,0.00
2023-05-15T00:01:51.824Z,0.00
2023-05-15T00:02:51.831Z,0.00
2023-05-15T00:03:51.825Z,0.00
2023-05-15T00:04:51.788Z,0.00
2023-05-15T00:05:51.784Z,0.00
2023-05-15T00:06:51.800Z,0.00
2023-05-15T00:07:51.745Z,0.00
2023-05-15T00:08:51.760Z,0.00
2023-05-15T00:09:51.742Z,0.00
2023-05-15T00:11:00.840Z,0.00
2023-05-15T00:11:53.729Z,0.00
2023-05-15T00:12:51.750Z,0.00
2023-05-15T00:13:51.710Z,0.00
2023-05-15T00:14:51.694Z,0.00
2023-05-15T00:15:51.904Z,0.00
2023-05-15T00:16:51.722Z,0.00
2023-05-15T00:17:51.731Z,0.00
2023-05-15T00:18:51.746Z,0.00
2023-05-15T00:19:51.666Z,0.00
2023-05-15T00:20:51.665Z,0.00
2023-05-15T00:21:51.664Z,0.00
2023-05-15T00:22:51.710Z,0.00
2023-05-15T00:23:51.646Z,0.00
2023-05-15T00:24:51.646Z,0.00
2023-05-15T00:25:51.649Z,0.00
2023-05-15T00:26:51.659Z,0.00
2023-05-15T00:27:51.659Z,0.00
2023-05-15T00:28:51.633Z,0.00
2023-05-15T00:29:51.620Z,0.00
2023-05-15T00:30:51.608Z,0.00
2023-05-15T00:31:51.667Z,0.00
2023-05-15T00:32:51.735Z,0.00
2023-05-15T00:33:51.591Z,0.00
2023-05-15T00:34:51.576Z,0.00
2023-05-15T00:35:51.586Z,0.00
2023-05-15T00:36:51.581Z,0.00
2023-05-15T00:37:51.573Z,0.00
2023-05-15T00:38:51.575Z,0.00
2023-05-15T00:39:51.570Z,0.00
2023-05-15T00:40:52.545Z,0.00
2023-05-15T00:41:51.557Z,0.00
2023-05-15T00:42:51.550Z,0.00
2023-05-15T00:43:51.661Z,0.00
2023-05-15T00:44:51.551Z,0.00
2023-05-15T00:45:51.596Z,0.00
2023-05-15T00:46:51.541Z,0.00
2023-05-15T00:47:51.525Z,0.00
2023-05-15T00:48:51.524Z,0.00
2023-05-15T00:49:51.533Z,0.00
2023-05-15T00:50:51.503Z,0.00
2023-05-15T00:51:51.544Z,0.00
2023-05-15T00:52:51.480Z,0.00
2023-05-15T00:53:51.562Z,0.00
2023-05-15T00:54:51.465Z,0.00
2023-05-15T00:55:51.458Z,0.00
2023-05-15T00:56:51.532Z,0.00
2023-05-15T00:57:51.533Z,0.00
2023-05-15T00:58:51.440Z,0.00
2023-05-15T00:59:51.499Z,0.00
2023-05-15T01:00:51.439Z,0.00
2023-05-15T01:01:51.435Z,0.00
2023-05-15T01:02:51.491Z,0.00
2023-05-15T01:03:51.418Z,0.00
2023-05-15T01:04:51.422Z,0.00
2023-05-15T01:05:51.445Z,0.00
2023-05-15T01:06:51.395Z,0.00
2023-05-15T01:07:51.450Z,0.00
2023-05-15T01:08:51.402Z,0.00
2023-05-15T01:09:51.397Z,0.00
2023-05-15T01:10:51.411Z,0.00
2023-05-15T01:11:51.355Z,0.00
2023-05-15T01:12:51.364Z,0.00
2023-05-15T01:13:51.353Z,0.00
2023-05-15T01:14:51.379Z,0.00
2023-05-15T01:15:51.386Z,0.00
2023-05-15T01:16:51.343Z,0.00
2023-05-15T01:17:51.391Z,0.00
2023-05-15T01:18:51.419Z,0.00
2023-05-15T01:19:51.472Z,0.00
2023-05-15T01:20:51.359Z,0.00
2023-05-15T01:21:51.305Z,0.00
2023-05-15T01:22:51.284Z,0.00
2023-05-15T01:23:51.294Z,0.00
2023-05-15T01:24:51.311Z,0.00
2023-05-15T01:25:51.307Z,0.00
2023-05-15T01:26:51.246Z,0.00
2023-05-15T01:27:51.275Z,0.00
2023-05-15T01:28:51.289Z,0.00
2023-05-15T01:29:51.241Z,0.00
2023-05-15T01:30:51.285Z,0.00
2023-05-15T01:31:51.271Z,0.00
2023-05-15T01:32:51.298Z,0.00
2023-05-15T01:33:51.247Z,0.00
2023-05-15T01:34:51.208Z,0.00
2023-05-15T01:35:51.226Z,0.00
2023-05-15T01:36:51.222Z,0.00
2023-05-15T01:37:51.204Z,0.00
2023-05-15T01:38:51.201Z,0.00
2023-05-15T01:39:51.207Z,0.00
2023-05-15T01:40:51.195Z,0.00
2023-05-15T01:41:51.208Z,0.00
2023-05-15T01:42:51.213Z,0.00
2023-05-15T01:43:51.147Z,0.00
2023-05-15T01:44:51.162Z,0.00
2023-05-15T01:45:51.149Z,0.00
2023-05-15T01:46:51.256Z,0.00
2023-05-15T01:47:51.177Z,0.00
2023-05-15T01:48:51.129Z,0.00
2023-05-15T01:49:51.147Z,0.00
2023-05-15T01:50:51.104Z,0.00
2023-05-15T01:51:51.133Z,0.00
2023-05-15T01:52:52.118Z,0.00
2023-05-15T01:53:51.112Z,0.00
2023-05-15T01:54:51.102Z,0.00
2023-05-15T01:55:51.085Z,0.00
2023-05-15T01:56:51.112Z,0.00
2023-05-15T01:57:51.098Z,0.00
2023-05-15T01:58:51.072Z,0.00
2023-05-15T01:59:51.090Z,0.00
2023-05-15T02:00:51.061Z,0.00
2023-05-15T02:01:51.095Z,0.00
2023-05-15T02:02:51.172Z,0.00
2023-05-15T02:03:51.206Z,0.00
2023-05-15T02:04:51.018Z,0.00
2023-05-15T02:05:51.047Z,0.00
2023-05-15T02:06:51.030Z,0.00
2023-05-15T02:07:51.088Z,0.00
2023-05-15T02:08:51.033Z,0.00
2023-05-15T02:09:51.007Z,0.00
2023-05-15T02:10:50.998Z,0.00
2023-05-15T02:11:51.071Z,0.00
2023-05-15T02:12:51.015Z,0.00
2023-05-15T02:13:50.964Z,0.00
2023-05-15T02:14:51.054Z,0.00
2023-05-15T02:15:50.996Z,0.00
2023-05-15T02:16:50.952Z,0.00
2023-05-15T02:17:51.088Z,0.00
2023-05-15T02:18:51.028Z,0.00
2023-05-15T02:19:51.077Z,0.00
2023-05-15T02:20:51.620Z,0.00
2023-05-15T02:21:50.950Z,0.00
2023-05-15T02:22:50.944Z,0.00
2023-05-15T02:23:50.911Z,0.00
2023-05-15T02:24:50.936Z,0.00
2023-05-15T02:25:50.926Z,0.00
2023-05-15T02:26:50.916Z,0.00
2023-05-15T02:27:50.879Z,0.00
2023-05-15T02:28:50.888Z,0.00
2023-05-15T02:29:50.885Z,0.00
2023-05-15T02:30:50.891Z,0.00
2023-05-15T02:31:50.933Z,0.00
2023-05-15T02:32:50.942Z,0.00
2023-05-15T02:33:50.861Z,0.00
2023-05-15T02:34:50.848Z,0.00
2023-05-15T02:35:51.073Z,0.00
2023-05-15T02:36:50.954Z,0.00
2023-05-15T02:37:51.424Z,0.00
2023-05-15T02:38:50.820Z,0.00
2023-05-15T02:39:50.880Z,0.00
2023-05-15T02:40:50.817Z,0.00
2023-05-15T02:41:50.789Z,0.00
2023-05-15T02:42:50.820Z,0.00
2023-05-15T02:43:50.810Z,0.00
2023-05-15T02:44:50.788Z,0.00
2023-05-15T02:45:50.832Z,0.00
2023-05-15T02:46:50.775Z,0.00
2023-05-15T02:47:50.756Z,0.00
2023-05-15T02:48:50.777Z,0.00
2023-05-15T02:49:50.766Z,0.00
2023-05-15T02:50:50.757Z,0.00
2023-05-15T02:51:50.741Z,0.00
2023-05-15T02:52:50.741Z,0.00
2023-05-15T02:53:50.738Z,0.00
2023-05-15T02:54:50.734Z,0.00
2023-05-15T02:55:51.428Z,0.00
2023-05-15T02:56:50.702Z,0.00
2023-05-15T02:57:50.693Z,0.00
2023-05-15T02:58:50.703Z,0.00
2023-05-15T02:59:50.686Z,0.00
2023-05-15T03:00:50.714Z,0.00
2023-05-15T03:01:50.674Z,0.00
2023-05-15T03:02:50.675Z,0.00
2023-05-15T03:03:50.739Z,0.00
2023-05-15T03:04:50.655Z,0.00
2023-05-15T03:05:50.672Z,0.00
2023-05-15T03:06:50.624Z,0.00
2023-05-15T03:07:50.674Z,0.00
2023-05-15T03:08:50.630Z,0.00
2023-05-15T03:09:50.643Z,0.00
2023-05-15T03:10:50.624Z,0.00
2023-05-15T03:11:50.612Z,0.00
2023-05-15T03:12:50.669Z,0.00
2023-05-15T03:13:50.593Z,0.00
2023-05-15T03:14:50.601Z,0.00
2023-05-15T03:15:51.401Z,0.00
2023-05-15T03:16:50.646Z,0.00
2023-05-15T03:17:50.623Z,0.00
2023-05-15T03:18:50.652Z,0.00
2023-05-15T03:19:50.559Z,0.00
2023-05-15T03:20:50.577Z,0.00
2023-05-15T03:21:50.571Z,0.00
2023-05-15T03:22:50.537Z,0.00
2023-05-15T03:23:50.556Z,0.00
2023-05-15T03:24:51.548Z,0.00
2023-05-15T03:25:50.575Z,0.00
2023-05-15T03:26:50.541Z,0.00
2023-05-15T03:27:50.495Z,0.00
2023-05-15T03:28:50.530Z,0.00
2023-05-15T03:29:50.538Z,0.00
2023-05-15T03:30:50.505Z,5.62
2023-05-15T03:31:50.540Z,5.62
2023-05-15T03:32:50.568Z,5.62
2023-05-15T03:33:50.521Z,5.62
2023-05-15T03:34:50.490Z,5.62
2023-05-15T03:35:50.513Z,5.62
2023-05-15T03:36:50.511Z,5.62
2023-05-15T03:37:50.477Z,5.62
2023-05-15T03:38:50.563Z,5.62
2023-05-15T03:39:50.427Z,5.62
2023-05-15T03:40:51.272Z,5.62
2023-05-15T03:41:51.739Z,11.25
2023-05-15T03:42:50.437Z,11.25
2023-05-15T03:43:50.439Z,11.25
2023-05-15T03:44:50.423Z,11.25
2023-05-15T03:45:50.402Z,11.25
2023-05-15T03:46:50.441Z,11.25
2023-05-15T03:47:50.471Z,11.25
2023-05-15T03:48:50.394Z,11.25
2023-05-15T03:49:51.128Z,11.25
2023-05-15T03:50:50.476Z,16.88
2023-05-15T03:51:50.504Z,16.88
2023-05-15T03:52:50.350Z,16.88
2023-05-15T03:53:50.355Z,16.88
2023-05-15T03:54:50.367Z,16.88
2023-05-15T03:55:50.355Z,16.88
2023-05-15T03:56:50.339Z,16.88
2023-05-15T03:57:50.322Z,22.50
2023-05-15T03:58:50.329Z,22.50
2023-05-15T03:59:50.910Z,22.50
2023-05-15T04:00:50.313Z,22.50
2023-05-15T04:02:03.577Z,22.50
2023-05-15T04:02:52.430Z,22.50
2023-05-15T04:03:50.307Z,28.12
2023-05-15T04:04:50.315Z,28.12
2023-05-15T04:05:50.336Z,28.12
2023-05-15T04:06:50.257Z,28.12
2023-05-15T04:07:50.380Z,28.12
2023-05-15T04:08:50.243Z,28.12
2023-05-15T04:09:50.282Z,33.75
2023-05-15T04:10:50.235Z,33.75
2023-05-15T04:11:50.232Z,33.75
2023-05-15T04:12:50.235Z,33.75
2023-05-15T04:13:50.238Z,39.38
2023-05-15T04:14:50.210Z,39.38
2023-05-15T04:15:50.346Z,39.38
2023-05-15T04:16:50.248Z,39.38
2023-05-15T04:17:50.271Z,45.00
2023-05-15T04:18:50.258Z,45.00
2023-05-15T04:19:51.165Z,45.00
2023-05-15T04:20:50.179Z,45.00
2023-05-15T04:21:50.323Z,45.00
2023-05-15T04:22:50.211Z,50.62
2023-05-15T04:23:50.174Z,50.62
2023-05-15T04:24:50.184Z,50.62
2023-05-15T04:25:50.190Z,56.25
2023-05-15T04:26:50.191Z,56.25
2023-05-15T04:27:50.138Z,61.88
2023-05-15T04:29:03.002Z,61.88
2023-05-15T04:29:52.155Z,61.88
2023-05-15T04:30:50.114Z,67.50
2023-05-15T04:31:50.148Z,67.50
2023-05-15T04:32:50.130Z,73.12
2023-05-15T04:33:51.453Z,73.12
2023-05-15T04:34:51.116Z,78.75
2023-05-15T04:35:50.092Z,78.75
2023-05-15T04:36:50.086Z,84.38
2023-05-15T04:37:50.112Z,84.38
2023-05-15T04:38:50.062Z,90.00
2023-05-15T04:39:50.049Z,90.00
2023-05-15T04:40:50.077Z,90.00
2023-05-15T04:41:50.064Z,90.00
2023-05-15T04:42:50.080Z,95.62
2023-05-15T04:43:50.037Z,95.62
2023-05-15T04:44:50.045Z,95.62
2023-05-15T04:45:50.074Z,101.25
2023-05-15T04:46:50.011Z,101.25
2023-05-15T04:47:50.156Z,101.25
2023-05-15T04:48:49.990Z,106.88
2023-05-15T04:49:49.998Z,106.88
2023-05-15T04:50:50.002Z,112.50
2023-05-15T04:51:49.994Z,118.12
2023-05-15T04:52:50.039Z,123.75
2023-05-15T04:53:50.078Z,140.62
2023-05-15T04:54:49.966Z,146.25
2023-05-15T04:55:50.001Z,151.88
2023-05-15T04:56:49.973Z,151.88
2023-05-15T04:57:50.059Z,157.50
2023-05-15T04:58:49.949Z,163.12
2023-05-15T04:59:50.107Z,168.75
2023-05-15T05:00:49.944Z,180.00
2023-05-15T05:01:50.050Z,180.00
2023-05-15T05:02:51.328Z,174.38
2023-05-15T05:03:49.945Z,185.62
2023-05-15T05:04:49.948Z,185.62
2023-05-15T05:05:49.988Z,185.62
2023-05-15T05:06:51.292Z,185.62
2023-05-15T05:07:49.952Z,191.25
2023-05-15T05:08:49.971Z,191.25
2023-05-15T05:09:49.920Z,191.25
2023-05-15T05:10:49.951Z,185.62
2023-05-15T05:11:49.870Z,196.88
2023-05-15T05:12:49.890Z,202.50
2023-05-15T05:13:49.879Z,208.12
2023-05-15T05:14:49.899Z,213.75
2023-05-15T05:15:49.941Z,213.75
2023-05-15T05:16:49.862Z,219.38
2023-05-15T05:17:49.919Z,230.62
2023-05-15T05:18:50.074Z,230.62
2023-05-15T05:19:49.837Z,236.25
2023-05-15T05:20:49.824Z,236.25
2023-05-15T05:21:49.796Z,236.25
2023-05-15T05:22:49.805Z,236.25
2023-05-15T05:24:23.264Z,247.50
2023-05-15T05:25:24.550Z,253.12
2023-05-15T05:25:49.829Z,247.50
2023-05-15T05:27:24.702Z,253.12
2023-05-15T05:27:49.792Z,264.38
2023-05-15T05:29:24.759Z,258.75
2023-05-15T05:34:46.816Z,258.75
2023-05-15T05:35:48.123Z,253.12
2023-05-15T05:36:47.914Z,253.12
2023-05-15T05:37:47.927Z,258.75
2023-05-15T05:38:47.899Z,258.75
2023-05-15T05:39:47.966Z,258.75
2023-05-15T05:40:47.909Z,258.75
2023-05-15T05:42:22.915Z,264.38
2023-05-15T05:42:47.898Z,270.00
2023-05-15T05:43:47.898Z,270.00
2023-05-15T05:44:47.877Z,270.00
2023-05-15T05:45:47.986Z,270.00
2023-05-15T05:46:47.874Z,270.00
2023-05-15T05:47:47.889Z,270.00
2023-05-15T05:48:47.824Z,264.38
2023-05-15T05:49:47.841Z,264.38
2023-05-15T05:50:47.841Z,253.12
2023-05-15T05:51:47.801Z,264.38
2023-05-15T05:52:47.791Z,258.75
2023-05-15T05:53:47.814Z,247.50
2023-05-15T05:54:47.775Z,264.38
2023-05-15T05:55:47.769Z,258.75
2023-05-15T05:56:47.815Z,264.38
2023-05-15T05:57:47.825Z,253.12
2023-05-15T05:58:47.797Z,275.62
2023-05-15T05:59:47.840Z,258.75
2023-05-15T06:00:47.753Z,241.88
2023-05-15T06:01:47.772Z,241.88
2023-05-15T06:02:47.848Z,230.62
2023-05-15T06:03:47.758Z,230.62
2023-05-15T06:04:47.729Z,230.62
2023-05-15T06:05:47.719Z,230.62
2023-05-15T06:06:47.726Z,230.62
2023-05-15T06:07:47.699Z,241.88
2023-05-15T06:08:47.695Z,230.62
2023-05-15T06:09:47.671Z,230.62
2023-05-15T06:10:47.681Z,230.62
2023-05-15T06:11:47.688Z,230.62
2023-05-15T06:12:47.659Z,247.50
2023-05-15T06:13:47.656Z,253.12
2023-05-15T06:14:47.646Z,275.62
2023-05-15T06:15:47.698Z,270.00
2023-05-15T06:16:47.718Z,264.38
2023-05-15T06:17:47.728Z,275.62
2023-05-15T06:18:47.700Z,286.88
2023-05-15T06:19:47.610Z,286.88
2023-05-15T06:20:47.632Z,286.88
2023-05-15T06:21:47.590Z,286.88
2023-05-15T06:22:48.587Z,292.50
2023-05-15T06:23:47.764Z,298.12
2023-05-15T06:24:47.581Z,303.75
2023-05-15T06:25:48.542Z,309.38
2023-05-15T06:26:47.569Z,315.00
2023-05-15T06:27:47.566Z,320.62
2023-05-15T06:28:47.654Z,331.88
2023-05-15T06:29:47.531Z,337.50
2023-05-15T06:30:47.636Z,348.75
2023-05-15T06:31:47.529Z,360.00
2023-05-15T06:32:47.591Z,354.38
2023-05-15T06:33:47.498Z,360.00
2023-05-15T06:34:47.511Z,365.62
2023-05-15T06:35:47.579Z,371.25
2023-05-15T06:36:47.555Z,371.25
2023-05-15T06:37:47.491Z,371.25
2023-05-15T06:38:47.484Z,376.88
2023-05-15T06:39:47.491Z,376.88
2023-05-15T06:40:47.467Z,376.88
2023-05-15T06:41:47.495Z,371.25
2023-05-15T06:42:47.475Z,376.88
2023-05-15T06:43:47.490Z,382.50
2023-05-15T06:44:47.518Z,388.12
2023-05-15T06:45:47.536Z,405.00
2023-05-15T06:46:47.481Z,421.88
2023-05-15T06:47:47.460Z,433.12
2023-05-15T06:48:47.644Z,438.75
2023-05-15T06:49:47.403Z,450.00
2023-05-15T06:50:47.450Z,450.00
2023-05-15T06:51:47.464Z,455.62
2023-05-15T06:52:47.393Z,466.88
2023-05-15T06:53:47.384Z,472.50
2023-05-15T06:54:47.400Z,478.12
2023-05-15T06:55:47.489Z,483.75
2023-05-15T06:56:47.438Z,500.62
2023-05-15T06:57:47.357Z,511.88
2023-05-15T06:58:47.456Z,534.38
2023-05-15T06:59:47.351Z,540.00
2023-05-15T07:00:47.401Z,545.62
2023-05-15T07:01:47.392Z,534.38
2023-05-15T07:02:47.344Z,545.62
2023-05-15T07:03:47.348Z,534.38
2023-05-15T07:04:47.454Z,534.38
2023-05-15T07:05:47.306Z,528.75
2023-05-15T07:06:47.305Z,523.12
2023-05-15T07:07:47.303Z,506.25
2023-05-15T07:08:47.364Z,506.25
2023-05-15T07:09:47.298Z,500.62
2023-05-15T07:10:47.295Z,489.38
2023-05-15T07:11:47.344Z,478.12
2023-05-15T07:12:47.302Z,478.12
2023-05-15T07:13:47.325Z,478.12
2023-05-15T07:14:47.266Z,483.75
2023-05-15T07:15:47.257Z,483.75
2023-05-15T07:16:47.312Z,489.38
2023-05-15T07:17:47.330Z,489.38
2023-05-15T07:18:47.343Z,495.00
2023-05-15T07:19:47.233Z,495.00
2023-05-15T07:20:47.235Z,489.38
2023-05-15T07:21:48.025Z,489.38
2023-05-15T07:22:55.855Z,495.00
2023-05-15T07:23:49.252Z,500.62
2023-05-15T07:24:47.214Z,506.25
2023-05-15T07:25:48.189Z,517.50
2023-05-15T07:26:58.297Z,534.38
2023-05-15T07:27:49.402Z,551.25
2023-05-15T07:28:47.190Z,585.00
2023-05-15T07:29:47.159Z,590.62
2023-05-15T07:30:47.161Z,601.88
2023-05-15T07:31:47.189Z,624.38
2023-05-15T07:32:47.203Z,624.38
2023-05-15T07:33:47.182Z,641.25
2023-05-15T07:34:47.229Z,618.75
2023-05-15T07:35:47.140Z,641.25
2023-05-15T07:36:47.145Z,635.62
2023-05-15T07:37:47.157Z,697.50
2023-05-15T07:38:47.155Z,663.75
2023-05-15T07:39:47.153Z,635.62
2023-05-15T07:40:47.149Z,697.50
2023-05-15T07:41:47.150Z,613.12
2023-05-15T07:42:47.105Z,618.75
2023-05-15T07:43:47.190Z,618.75
2023-05-15T07:44:49.489Z,624.38
2023-05-15T07:45:47.105Z,635.62
2023-05-15T07:46:47.130Z,641.25
2023-05-15T07:47:47.088Z,646.88
2023-05-15T07:48:47.047Z,641.25
2023-05-15T07:49:47.028Z,663.75
2023-05-15T07:50:47.060Z,675.00
2023-05-15T07:51:47.015Z,703.12
2023-05-15T07:52:47.007Z,714.38
2023-05-15T07:53:46.992Z,731.25
2023-05-15T07:54:47.005Z,770.62
2023-05-15T07:55:46.989Z,765.00
2023-05-15T07:56:46.989Z,753.75
2023-05-15T07:57:53.392Z,770.62
2023-05-15T07:58:47.987Z,742.50
2023-05-15T07:59:46.985Z,753.75
2023-05-15T08:00:46.972Z,804.38
2023-05-15T08:01:46.964Z,781.88
2023-05-15T08:02:46.984Z,776.25
2023-05-15T08:03:46.981Z,883.12
2023-05-15T08:04:46.928Z,916.88
2023-05-15T08:05:46.935Z,995.62
2023-05-15T08:06:46.925Z,1046.25
2023-05-15T08:07:46.923Z,950.62
2023-05-15T08:08:46.902Z,990.00
2023-05-15T08:09:47.901Z,1231.88
2023-05-15T08:10:46.891Z,922.50
2023-05-15T08:11:46.914Z,990.00
2023-05-15T08:12:46.903Z,1068.75
2023-05-15T08:13:46.910Z,950.62
2023-05-15T08:14:46.998Z,916.88
2023-05-15T08:15:47.132Z,900.00
2023-05-15T08:16:46.882Z,928.12
2023-05-15T08:17:46.892Z,900.00
2023-05-15T08:18:46.876Z,894.38
2023-05-15T08:19:46.876Z,871.88
2023-05-15T08:20:46.819Z,866.25
2023-05-15T08:21:46.896Z,883.12
2023-05-15T08:22:46.822Z,905.62
2023-05-15T08:23:46.834Z,922.50
2023-05-15T08:24:46.810Z,894.38
2023-05-15T08:25:46.797Z,928.12
2023-05-15T08:26:46.813Z,860.62
2023-05-15T08:27:46.801Z,843.75
2023-05-15T08:28:46.782Z,826.88
2023-05-15T08:29:46.794Z,832.50
2023-05-15T08:30:46.770Z,838.12
2023-05-15T08:31:46.860Z,843.75
2023-05-15T08:32:46.830Z,961.88
2023-05-15T08:33:46.792Z,1018.12
2023-05-15T08:34:46.770Z,832.50
2023-05-15T08:35:46.819Z,793.12
2023-05-15T08:36:46.744Z,793.12
2023-05-15T08:37:46.713Z,832.50
2023-05-15T08:38:46.704Z,838.12
2023-05-15T08:39:47.423Z,815.62
2023-05-15T08:40:46.728Z,815.62
2023-05-15T08:41:46.679Z,866.25
2023-05-15T08:42:46.689Z,894.38
2023-05-15T08:43:46.678Z,860.62
2023-05-15T08:44:46.667Z,933.75
2023-05-15T08:45:46.678Z,832.50
2023-05-15T08:46:46.750Z,843.75
2023-05-15T08:47:46.858Z,883.12
2023-05-15T08:48:46.739Z,916.88
2023-05-15T08:49:46.662Z,871.88
2023-05-15T08:50:46.680Z,866.25
2023-05-15T08:51:46.658Z,871.88
2023-05-15T08:52:46.664Z,1035.00
2023-05-15T08:53:46.653Z,990.00
2023-05-15T08:54:48.287Z,1040.62
2023-05-15T08:55:47.640Z,1147.50
2023-05-15T08:56:46.615Z,1080.00
2023-05-15T08:57:46.633Z,1136.25
2023-05-15T08:58:46.741Z,1338.75
2023-05-15T08:59:46.619Z,1642.50
2023-05-15T09:00:46.602Z,1788.75
2023-05-15T09:01:46.629Z,1755.00
2023-05-15T09:02:46.733Z,1721.25
2023-05-15T09:03:46.637Z,1698.75
2023-05-15T09:04:46.567Z,1659.38
2023-05-15T09:05:46.562Z,1738.12
2023-05-15T09:06:46.545Z,1766.25
2023-05-15T09:07:46.571Z,1726.88
2023-05-15T09:08:47.060Z,1681.88
2023-05-15T09:09:46.534Z,1715.62
2023-05-15T09:10:46.535Z,1715.62
2023-05-15T09:11:46.539Z,1625.62
2023-05-15T09:12:46.519Z,1766.25
2023-05-15T09:13:46.539Z,1822.50
2023-05-15T09:14:46.544Z,1923.75
2023-05-15T09:15:46.502Z,1918.12
2023-05-15T09:16:46.529Z,1963.12
2023-05-15T09:17:46.568Z,1996.88
2023-05-15T09:18:46.537Z,1985.62
2023-05-15T09:19:46.475Z,2053.12
2023-05-15T09:20:46.477Z,2013.75
2023-05-15T09:21:46.461Z,2030.62
2023-05-15T09:22:46.471Z,1996.88
2023-05-15T09:23:46.508Z,1985.62
2023-05-15T09:24:46.446Z,2030.62
2023-05-15T09:25:46.425Z,1968.75
2023-05-15T09:26:46.436Z,2036.25
2023-05-15T09:27:46.448Z,2075.62
2023-05-15T09:28:47.091Z,2036.25
2023-05-15T09:29:46.444Z,2058.75
2023-05-15T09:30:46.417Z,2064.38
2023-05-15T09:31:46.464Z,2176.88
2023-05-15T09:32:46.421Z,2131.88
2023-05-15T09:33:46.387Z,2092.50
2023-05-15T09:34:46.431Z,2458.12
2023-05-15T09:35:46.399Z,2165.62
2023-05-15T09:36:46.400Z,1119.38
2023-05-15T09:37:46.380Z,939.38
2023-05-15T09:38:46.420Z,821.25
2023-05-15T09:39:46.391Z,736.88
2023-05-15T09:40:46.354Z,686.25
2023-05-15T09:41:46.369Z,652.50
2023-05-15T09:42:46.358Z,630.00
2023-05-15T09:43:46.375Z,618.75
2023-05-15T09:44:46.350Z,618.75
2023-05-15T09:45:46.333Z,607.50
2023-05-15T09:46:46.372Z,596.25
2023-05-15T09:47:46.399Z,590.62
2023-05-15T09:48:46.368Z,579.38
2023-05-15T09:49:46.316Z,573.75
2023-05-15T09:50:46.294Z,562.50
2023-05-15T09:51:46.315Z,556.88
2023-05-15T09:52:46.297Z,573.75
2023-05-15T09:53:46.295Z,883.12
2023-05-15T09:54:48.091Z,646.88
2023-05-15T09:55:46.294Z,2019.38
2023-05-15T09:56:46.469Z,663.75
2023-05-15T09:57:46.248Z,663.75
2023-05-15T09:58:46.626Z,748.12
2023-05-15T09:59:46.216Z,1113.75
2023-05-15T10:00:48.308Z,1951.88
2023-05-15T10:01:46.376Z,871.88
2023-05-15T10:02:46.257Z,2025.00
2023-05-15T10:03:46.284Z,2070.00
2023-05-15T10:04:46.260Z,2182.50
2023-05-15T10:05:46.255Z,720.00
2023-05-15T10:06:46.208Z,601.88
2023-05-15T10:07:46.282Z,540.00
2023-05-15T10:08:46.202Z,506.25
2023-05-15T10:09:46.201Z,466.88
2023-05-15T10:10:46.202Z,450.00
2023-05-15T10:11:46.223Z,433.12
2023-05-15T10:12:47.859Z,421.88
2023-05-15T10:13:46.186Z,405.00
2023-05-15T10:14:46.175Z,382.50
2023-05-15T10:15:46.214Z,365.62
2023-05-15T10:16:46.222Z,343.12
2023-05-15T10:17:46.161Z,331.88
2023-05-15T10:18:46.164Z,315.00
2023-05-15T10:19:57.290Z,309.38
2023-05-15T10:20:48.233Z,303.75
2023-05-15T10:21:46.108Z,303.75
2023-05-15T10:22:46.095Z,303.75
2023-05-15T10:23:46.114Z,298.12
2023-05-15T10:24:46.100Z,298.12
2023-05-15T10:25:46.096Z,303.75
2023-05-15T10:26:46.104Z,303.75
2023-05-15T10:27:46.110Z,303.75
2023-05-15T10:28:46.063Z,309.38
2023-05-15T10:29:46.078Z,315.00
2023-05-15T10:30:46.053Z,326.25
2023-05-15T10:31:46.211Z,326.25
2023-05-15T10:32:46.117Z,337.50
2023-05-15T10:33:46.048Z,337.50
2023-05-15T10:34:46.038Z,348.75
2023-05-15T10:35:46.102Z,365.62
2023-05-15T10:36:45.995Z,376.88
2023-05-15T10:37:46.003Z,388.12
2023-05-15T10:38:46.024Z,399.38
2023-05-15T10:40:24.556Z,405.00
2023-05-15T10:41:20.970Z,405.00
2023-05-15T10:42:22.088Z,393.75
2023-05-15T10:42:46.066Z,382.50
2023-05-15T10:44:20.923Z,365.62
2023-05-15T10:44:46.045Z,348.75
2023-05-15T10:46:19.449Z,331.88
2023-05-15T10:46:45.994Z,320.62
2023-05-15T10:48:19.567Z,309.38
2023-05-15T10:49:19.411Z,298.12
2023-05-15T10:50:19.418Z,298.12
2023-05-15T10:50:46.019Z,298.12
2023-05-15T10:52:20.904Z,298.12
2023-05-15T10:52:45.960Z,303.75
2023-05-15T10:54:18.377Z,315.00
2023-05-15T10:54:45.965Z,320.62
2023-05-15T10:56:20.861Z,326.25
2023-05-15T10:56:45.920Z,337.50
2023-05-15T10:58:19.398Z,354.38
2023-05-15T10:58:45.889Z,365.62
2023-05-15T10:59:45.884Z,376.88
2023-05-15T11:00:45.904Z,393.75
2023-05-15T11:01:46.002Z,416.25
2023-05-15T11:02:45.934Z,421.88
2023-05-15T11:03:49.194Z,433.12
2023-05-15T11:04:46.993Z,444.38
2023-05-15T11:05:45.822Z,455.62
2023-05-15T11:06:45.847Z,466.88
2023-05-15T11:07:45.807Z,483.75
2023-05-15T11:08:46.812Z,495.00
2023-05-15T11:09:45.826Z,500.62
2023-05-15T11:10:45.818Z,506.25
2023-05-15T11:11:45.801Z,506.25
2023-05-15T11:12:45.857Z,506.25
2023-05-15T11:13:45.770Z,506.25
2023-05-15T11:14:45.787Z,506.25
2023-05-15T11:15:45.850Z,511.88
2023-05-15T11:16:45.810Z,528.75
2023-05-15T11:17:45.846Z,545.62
2023-05-15T11:18:45.777Z,590.62
2023-05-15T11:19:45.752Z,635.62
2023-05-15T11:20:45.722Z,753.75
2023-05-15T11:21:45.757Z,1344.38
2023-05-15T11:22:45.777Z,860.62
2023-05-15T11:23:45.729Z,849.38
2023-05-15T11:24:45.749Z,900.00
2023-05-15T11:25:45.709Z,1293.75
2023-05-15T11:26:45.727Z,1035.00
2023-05-15T11:27:45.755Z,1175.62
2023-05-15T11:28:45.690Z,1501.88
2023-05-15T11:29:45.696Z,1361.25
2023-05-15T11:30:45.729Z,1749.38
2023-05-15T11:31:45.692Z,1063.12
2023-05-15T11:32:45.785Z,1501.88
2023-05-15T11:33:45.714Z,1479.38
2023-05-15T11:34:45.682Z,995.62
2023-05-15T11:35:45.647Z,1513.12
2023-05-15T11:36:45.678Z,1080.00
2023-05-15T11:37:45.695Z,922.50
2023-05-15T11:38:45.666Z,810.00
2023-05-15T11:39:45.628Z,675.00
2023-05-15T11:40:45.662Z,641.25
2023-05-15T11:41:45.704Z,646.88
2023-05-15T11:42:45.625Z,686.25
2023-05-15T11:43:45.603Z,815.62
2023-05-15T11:44:45.581Z,2013.75
2023-05-15T11:45:45.601Z,2300.62
2023-05-15T11:46:45.633Z,2278.12
2023-05-15T11:47:45.649Z,1271.25
2023-05-15T11:48:45.573Z,956.25
2023-05-15T11:49:45.540Z,1029.38
2023-05-15T11:50:45.573Z,978.75
2023-05-15T11:51:45.587Z,832.50
2023-05-15T11:52:45.524Z,742.50
2023-05-15T11:53:45.580Z,765.00
2023-05-15T11:54:45.561Z,905.62
2023-05-15T11:55:45.510Z,911.25
2023-05-15T11:56:45.514Z,753.75
2023-05-15T11:57:45.497Z,781.88
2023-05-15T11:58:45.524Z,838.12
2023-05-15T11:59:45.480Z,1023.75
2023-05-15T12:00:45.478Z,1980.00
2023-05-15T12:01:45.479Z,1119.38
2023-05-15T12:02:45.513Z,2120.62
2023-05-15T12:03:45.659Z,1451.25
2023-05-15T12:04:45.489Z,956.25
2023-05-15T12:05:57.385Z,1850.62
2023-05-15T12:06:47.499Z,2053.12
2023-05-15T12:07:45.448Z,1057.50
2023-05-15T12:08:46.739Z,731.25
2023-05-15T12:09:46.329Z,658.12
2023-05-15T12:10:45.457Z,618.75
2023-05-15T12:11:45.447Z,596.25
2023-05-15T12:12:45.410Z,590.62
2023-05-15T12:13:45.420Z,579.38
2023-05-15T12:14:45.457Z,573.75
2023-05-15T12:15:45.397Z,573.75
2023-05-15T12:16:45.464Z,556.88
2023-05-15T12:17:45.446Z,551.25
2023-05-15T12:18:45.394Z,545.62
2023-05-15T12:19:45.398Z,545.62
2023-05-15T12:20:45.397Z,545.62
2023-05-15T12:21:45.355Z,579.38
2023-05-15T12:22:45.343Z,562.50
2023-05-15T12:23:48.683Z,573.75
2023-05-15T12:24:48.304Z,579.38
2023-05-15T12:25:45.400Z,585.00
2023-05-15T12:26:45.298Z,590.62
2023-05-15T12:27:45.342Z,590.62
2023-05-15T12:28:45.296Z,585.00
2023-05-15T12:29:45.293Z,579.38
2023-05-15T12:30:45.305Z,573.75
2023-05-15T12:31:45.343Z,573.75
2023-05-15T12:32:45.326Z,562.50
2023-05-15T12:33:45.353Z,562.50
2023-05-15T12:34:45.255Z,568.12
2023-05-15T12:35:45.283Z,585.00
2023-05-15T12:36:45.261Z,596.25
2023-05-15T12:37:45.246Z,607.50
2023-05-15T12:38:45.261Z,613.12
2023-05-15T12:39:45.247Z,624.38
2023-05-15T12:40:45.212Z,669.38
2023-05-15T12:41:46.349Z,928.12
2023-05-15T12:42:45.428Z,748.12
2023-05-15T12:43:45.199Z,843.75
2023-05-15T12:44:45.729Z,810.00
2023-05-15T12:45:45.223Z,804.38
2023-05-15T12:46:45.201Z,866.25